sensor_id;sensor_type;location;lat;lon;timestamp;pressure;altitude;pressure_sealevel;temperature;humidity
250;BME280;109;19.806;-70.704;2023-07-08T00:01:13;101444.84;;;29.46;58.29
250;BME280;109;19.806;-70.704;2023-07-08T00:03:40;101450.13;;;29.48;58.33
250;BME280;109;19.806;-70.704;2023-07-08T00:06:13;101445.63;;;29.48;58.27
250;BME280;109;19.806;-70.704;2023-07-08T00:08:42;101445.13;;;29.56;57.78
250;BME280;109;19.806;-70.704;2023-07-08T00:11:13;101447.59;;;29.73;57.96
250;BME280;109;19.806;-70.704;2023-07-08T00:13:40;101451.00;;;29.77;57.44
250;BME280;109;19.806;-70.704;2023-07-08T00:16:12;101462.13;;;29.42;57.95
250;BME280;109;19.806;-70.704;2023-07-08T00:18:38;101448.50;;;29.59;57.82
250;BME280;109;19.806;-70.704;2023-07-08T00:21:10;101452.13;;;29.73;57.73
250;BME280;109;19.806;-70.704;2023-07-08T00:23:44;101457.19;;;29.50;58.15
250;BME280;109;19.806;-70.704;2023-07-08T00:26:23;101457.22;;;29.35;58.30
250;BME280;109;19.806;-70.704;2023-07-08T00:28:51;101453.38;;;29.67;58.27
250;BME280;109;19.806;-70.704;2023-07-08T00:31:20;101450.69;;;29.53;58.59
250;BME280;109;19.806;-70.704;2023-07-08T00:33:50;101461.03;;;29.60;58.52
250;BME280;109;19.806;-70.704;2023-07-08T00:36:18;101463.59;;;29.34;58.29
250;BME280;109;19.806;-70.704;2023-07-08T00:38:53;101473.50;;;29.19;58.27
250;BME280;109;19.806;-70.704;2023-07-08T00:41:36;101463.38;;;29.22;58.70
250;BME280;109;19.806;-70.704;2023-07-08T00:44:12;101462.91;;;29.30;58.25
250;BME280;109;19.806;-70.704;2023-07-08T00:46:55;101466.56;;;29.29;58.22
250;BME280;109;19.806;-70.704;2023-07-08T00:50:03;101466.31;;;29.48;57.91
250;BME280;109;19.806;-70.704;2023-07-08T00:52:29;101469.53;;;29.39;57.84
250;BME280;109;19.806;-70.704;2023-07-08T00:54:59;101469.88;;;29.48;57.58
250;BME280;109;19.806;-70.704;2023-07-08T00:57:37;101472.63;;;29.33;57.86
250;BME280;109;19.806;-70.704;2023-07-08T01:00:16;101476.19;;;29.33;58.04
250;BME280;109;19.806;-70.704;2023-07-08T01:02:53;101475.81;;;29.11;58.34
250;BME280;109;19.806;-70.704;2023-07-08T01:05:28;101471.59;;;29.35;57.97
250;BME280;109;19.806;-70.704;2023-07-08T01:07:59;101467.72;;;29.25;57.87
250;BME280;109;19.806;-70.704;2023-07-08T01:10:52;101464.03;;;29.26;58.02
250;BME280;109;19.806;-70.704;2023-07-08T01:13:28;101475.31;;;29.18;58.01
250;BME280;109;19.806;-70.704;2023-07-08T01:16:04;101481.66;;;29.17;57.78
250;BME280;109;19.806;-70.704;2023-07-08T01:18:31;101478.41;;;29.12;57.99
250;BME280;109;19.806;-70.704;2023-07-08T01:21:35;101481.94;;;28.99;58.45
250;BME280;109;19.806;-70.704;2023-07-08T01:24:10;101480.34;;;28.94;58.34
250;BME280;109;19.806;-70.704;2023-07-08T01:26:42;101484.34;;;29.03;58.18
250;BME280;109;19.806;-70.704;2023-07-08T01:29:16;101484.63;;;29.13;58.08
250;BME280;109;19.806;-70.704;2023-07-08T01:31:43;101497.38;;;29.11;57.78
250;BME280;109;19.806;-70.704;2023-07-08T01:34:29;101500.63;;;29.16;57.72
250;BME280;109;19.806;-70.704;2023-07-08T01:37:04;101498.03;;;29.14;58.11
250;BME280;109;19.806;-70.704;2023-07-08T01:39:32;101498.03;;;29.14;57.79
250;BME280;109;19.806;-70.704;2023-07-08T01:42:06;101502.97;;;29.36;57.69
250;BME280;109;19.806;-70.704;2023-07-08T01:44:47;101504.09;;;29.18;58.11
250;BME280;109;19.806;-70.704;2023-07-08T01:47:16;101508.53;;;29.19;57.64
250;BME280;109;19.806;-70.704;2023-07-08T01:49:51;101506.88;;;29.16;57.28
250;BME280;109;19.806;-70.704;2023-07-08T01:52:18;101497.88;;;29.31;57.28
250;BME280;109;19.806;-70.704;2023-07-08T01:54:55;101510.25;;;29.50;56.96
250;BME280;109;19.806;-70.704;2023-07-08T01:57:28;101520.41;;;29.45;56.04
250;BME280;109;19.806;-70.704;2023-07-08T01:59:55;101513.91;;;29.49;56.49
250;BME280;109;19.806;-70.704;2023-07-08T02:02:39;101514.47;;;29.54;56.30
250;BME280;109;19.806;-70.704;2023-07-08T02:05:12;101521.88;;;29.64;55.69
250;BME280;109;19.806;-70.704;2023-07-08T02:07:40;101522.97;;;29.62;55.86
250;BME280;109;19.806;-70.704;2023-07-08T02:10:14;101517.34;;;29.65;56.03
250;BME280;109;19.806;-70.704;2023-07-08T02:12:41;101525.75;;;29.75;55.80
250;BME280;109;19.806;-70.704;2023-07-08T02:15:14;101528.53;;;29.87;55.21
250;BME280;109;19.806;-70.704;2023-07-08T02:17:41;101533.75;;;29.90;55.13
250;BME280;109;19.806;-70.704;2023-07-08T02:20:14;101534.63;;;29.77;55.27
250;BME280;109;19.806;-70.704;2023-07-08T02:22:41;101540.13;;;29.75;55.39
250;BME280;109;19.806;-70.704;2023-07-08T02:25:14;101536.25;;;29.79;55.20
250;BME280;109;19.806;-70.704;2023-07-08T02:27:42;101539.25;;;29.75;55.29
250;BME280;109;19.806;-70.704;2023-07-08T02:30:23;101542.41;;;29.53;55.76
250;BME280;109;19.806;-70.704;2023-07-08T02:32:56;101542.72;;;29.62;55.78
250;BME280;109;19.806;-70.704;2023-07-08T02:35:27;101550.91;;;29.61;55.81
250;BME280;109;19.806;-70.704;2023-07-08T02:38:01;101548.03;;;29.64;55.49
250;BME280;109;19.806;-70.704;2023-07-08T02:40:48;101547.44;;;29.59;55.45
250;BME280;109;19.806;-70.704;2023-07-08T02:43:21;101556.97;;;29.50;55.59
250;BME280;109;19.806;-70.704;2023-07-08T02:45:51;101558.66;;;29.37;55.66
250;BME280;109;19.806;-70.704;2023-07-08T02:48:25;101560.63;;;29.49;55.34
250;BME280;109;19.806;-70.704;2023-07-08T02:51:01;101559.09;;;29.59;55.18
250;BME280;109;19.806;-70.704;2023-07-08T02:53:34;101553.50;;;29.77;55.01
250;BME280;109;19.806;-70.704;2023-07-08T02:56:01;101557.44;;;29.71;55.04
250;BME280;109;19.806;-70.704;2023-07-08T02:58:36;101563.78;;;29.56;55.19
250;BME280;109;19.806;-70.704;2023-07-08T03:01:02;101570.94;;;29.57;55.23
250;BME280;109;19.806;-70.704;2023-07-08T03:03:35;101570.47;;;29.50;55.49
250;BME280;109;19.806;-70.704;2023-07-08T03:06:03;101568.91;;;29.46;55.45
250;BME280;109;19.806;-70.704;2023-07-08T03:08:37;101567.75;;;29.50;55.19
250;BME280;109;19.806;-70.704;2023-07-08T03:11:05;101567.44;;;29.55;55.06
250;BME280;109;19.806;-70.704;2023-07-08T03:13:39;101572.38;;;29.48;55.30
250;BME280;109;19.806;-70.704;2023-07-08T03:16:07;101565.56;;;29.41;55.48
250;BME280;109;19.806;-70.704;2023-07-08T03:18:44;101562.88;;;29.41;55.25
250;BME280;109;19.806;-70.704;2023-07-08T03:21:29;101573.75;;;29.40;55.40
250;BME280;109;19.806;-70.704;2023-07-08T03:24:02;101565.56;;;29.41;55.51
250;BME280;109;19.806;-70.704;2023-07-08T03:26:29;101559.53;;;29.38;55.41
250;BME280;109;19.806;-70.704;2023-07-08T03:29:02;101565.56;;;29.41;55.44
250;BME280;109;19.806;-70.704;2023-07-08T03:31:30;101561.53;;;29.34;55.57
250;BME280;109;19.806;-70.704;2023-07-08T03:34:03;101558.75;;;29.36;55.45
250;BME280;109;19.806;-70.704;2023-07-08T03:36:30;101562.09;;;29.39;55.50
250;BME280;109;19.806;-70.704;2023-07-08T03:39:11;101560.56;;;29.35;55.52
250;BME280;109;19.806;-70.704;2023-07-08T03:41:51;101556.78;;;29.23;55.90
250;BME280;109;19.806;-70.704;2023-07-08T03:44:19;101558.13;;;29.30;55.59
250;BME280;109;19.806;-70.704;2023-07-08T03:46:52;101558.91;;;29.33;55.47
250;BME280;109;19.806;-70.704;2023-07-08T03:49:21;101556.31;;;29.31;55.82
250;BME280;109;19.806;-70.704;2023-07-08T03:51:56;101546.50;;;29.30;55.54
250;BME280;109;19.806;-70.704;2023-07-08T03:54:25;101550.56;;;29.37;55.54
250;BME280;109;19.806;-70.704;2023-07-08T03:56:59;101546.03;;;29.38;55.46
250;BME280;109;19.806;-70.704;2023-07-08T03:59:27;101542.56;;;29.36;55.37
250;BME280;109;19.806;-70.704;2023-07-08T04:02:00;101546.66;;;29.27;55.43
250;BME280;109;19.806;-70.704;2023-07-08T04:04:28;101542.63;;;29.20;55.75
250;BME280;109;19.806;-70.704;2023-07-08T04:07:03;101542.22;;;29.12;55.90
250;BME280;109;19.806;-70.704;2023-07-08T04:09:29;101543.75;;;29.16;55.80
250;BME280;109;19.806;-70.704;2023-07-08T04:12:02;101533.53;;;29.07;55.78
250;BME280;109;19.806;-70.704;2023-07-08T04:14:30;101534.31;;;29.09;55.86
250;BME280;109;19.806;-70.704;2023-07-08T04:17:03;101529.72;;;29.11;55.85
250;BME280;109;19.806;-70.704;2023-07-08T04:19:30;101530.94;;;29.05;55.61
250;BME280;109;19.806;-70.704;2023-07-08T04:22:03;101520.53;;;28.99;55.78
250;BME280;109;19.806;-70.704;2023-07-08T04:24:32;101521.38;;;29.00;55.92
250;BME280;109;19.806;-70.704;2023-07-08T04:27:05;101518.81;;;28.98;56.19
250;BME280;109;19.806;-70.704;2023-07-08T04:29:32;101519.66;;;28.99;55.92
250;BME280;109;19.806;-70.704;2023-07-08T04:32:05;101519.13;;;28.92;55.60
250;BME280;109;19.806;-70.704;2023-07-08T04:34:32;101515.16;;;28.99;55.93
250;BME280;109;19.806;-70.704;2023-07-08T04:37:12;101519.38;;;29.03;55.71
250;BME280;109;19.806;-70.704;2023-07-08T04:39:46;101520.84;;;29.09;55.71
250;BME280;109;19.806;-70.704;2023-07-08T04:42:33;101512.75;;;29.09;55.97
250;BME280;109;19.806;-70.704;2023-07-08T04:45:06;101515.38;;;29.10;56.07
250;BME280;109;19.806;-70.704;2023-07-08T04:47:33;101503.50;;;29.13;55.95
250;BME280;109;19.806;-70.704;2023-07-08T04:50:07;101507.94;;;29.14;55.69
250;BME280;109;19.806;-70.704;2023-07-08T04:52:35;101500.94;;;29.11;55.63
250;BME280;109;19.806;-70.704;2023-07-08T04:55:08;101507.19;;;29.12;55.83
250;BME280;109;19.806;-70.704;2023-07-08T04:57:35;101513.53;;;29.11;55.67
250;BME280;109;19.806;-70.704;2023-07-08T05:00:15;101499.47;;;29.06;55.67
250;BME280;109;19.806;-70.704;2023-07-08T05:02:49;101496.84;;;29.04;55.89
250;BME280;109;19.806;-70.704;2023-07-08T05:05:16;101498.59;;;29.05;55.90
250;BME280;109;19.806;-70.704;2023-07-08T05:07:49;101497.03;;;29.01;55.94
250;BME280;109;19.806;-70.704;2023-07-08T05:10:16;101496.69;;;28.91;56.06
250;BME280;109;19.806;-70.704;2023-07-08T05:12:49;101497.13;;;29.00;55.76
250;BME280;109;19.806;-70.704;2023-07-08T05:15:16;101491.94;;;28.97;55.70
250;BME280;109;19.806;-70.704;2023-07-08T05:17:50;101500.16;;;29.09;55.18
250;BME280;109;19.806;-70.704;2023-07-08T05:20:18;101494.28;;;29.17;54.90
250;BME280;109;19.806;-70.704;2023-07-08T05:22:59;101492.38;;;29.19;54.89
250;BME280;109;19.806;-70.704;2023-07-08T05:25:33;101484.34;;;29.03;55.19
250;BME280;109;19.806;-70.704;2023-07-08T05:27:59;101482.91;;;28.98;54.91
250;BME280;109;19.806;-70.704;2023-07-08T05:30:32;101481.66;;;29.03;54.81
250;BME280;109;19.806;-70.704;2023-07-08T05:32:59;101473.06;;;28.97;54.84
250;BME280;109;19.806;-70.704;2023-07-08T05:35:31;101468.97;;;28.89;54.75
250;BME280;109;19.806;-70.704;2023-07-08T05:37:57;101473.22;;;28.93;54.70
250;BME280;109;19.806;-70.704;2023-07-08T05:40:31;101471.25;;;28.97;54.64
250;BME280;109;19.806;-70.704;2023-07-08T05:43:11;101467.31;;;29.03;54.61
250;BME280;109;19.806;-70.704;2023-07-08T05:45:37;101465.56;;;29.02;54.60
250;BME280;109;19.806;-70.704;2023-07-08T05:48:10;101452.09;;;29.02;54.36
250;BME280;109;19.806;-70.704;2023-07-08T05:50:37;101464.19;;;28.94;53.99
250;BME280;109;19.806;-70.704;2023-07-08T05:53:12;101456.75;;;28.84;54.14
250;BME280;109;19.806;-70.704;2023-07-08T05:55:40;101454.44;;;28.92;54.18
250;BME280;109;19.806;-70.704;2023-07-08T05:58:15;101442.47;;;28.98;53.80
250;BME280;109;19.806;-70.704;2023-07-08T06:00:43;101441.66;;;28.95;53.93
250;BME280;109;19.806;-70.704;2023-07-08T06:03:16;101438.81;;;28.99;53.68
250;BME280;109;19.806;-70.704;2023-07-08T06:05:43;101443.22;;;29.00;53.81
250;BME280;109;19.806;-70.704;2023-07-08T06:08:16;101433.59;;;28.95;53.53
250;BME280;109;19.806;-70.704;2023-07-08T06:10:44;101436.22;;;28.97;53.52
250;BME280;109;19.806;-70.704;2023-07-08T06:13:25;101440.28;;;28.88;53.33
250;BME280;109;19.806;-70.704;2023-07-08T06:15:58;101433.94;;;28.89;53.43
250;BME280;109;19.806;-70.704;2023-07-08T06:18:25;101425.75;;;28.91;53.29
250;BME280;109;19.806;-70.704;2023-07-08T06:20:58;101425.69;;;28.92;53.25
250;BME280;109;19.806;-70.704;2023-07-08T06:23:25;101423.53;;;28.99;53.11
250;BME280;109;19.806;-70.704;2023-07-08T06:25:58;101419.25;;;28.95;53.21
250;BME280;109;19.806;-70.704;2023-07-08T06:28:25;101429.16;;;28.94;53.15
250;BME280;109;19.806;-70.704;2023-07-08T06:30:58;101419.13;;;28.82;52.68
250;BME280;109;19.806;-70.704;2023-07-08T06:33:25;101419.69;;;28.87;53.09
250;BME280;109;19.806;-70.704;2023-07-08T06:35:58;101430.84;;;28.81;53.17
250;BME280;109;19.806;-70.704;2023-07-08T06:38:25;101429.16;;;28.94;53.16
250;BME280;109;19.806;-70.704;2023-07-08T06:40:58;101431.25;;;28.89;52.98
250;BME280;109;19.806;-70.704;2023-07-08T06:43:38;101428.34;;;28.78;53.15
250;BME280;109;19.806;-70.704;2023-07-08T06:46:11;101434.34;;;28.83;52.87
250;BME280;109;19.806;-70.704;2023-07-08T06:48:44;101437.59;;;28.88;53.07
250;BME280;109;19.806;-70.704;2023-07-08T06:51:11;101426.06;;;28.86;52.97
250;BME280;109;19.806;-70.704;2023-07-08T06:53:43;101432.81;;;28.93;52.93
250;BME280;109;19.806;-70.704;2023-07-08T06:56:10;101435.34;;;28.97;53.00
250;BME280;109;19.806;-70.704;2023-07-08T06:58:42;101433.84;;;28.91;52.87
250;BME280;109;19.806;-70.704;2023-07-08T07:01:16;101428.44;;;28.77;52.83
250;BME280;109;19.806;-70.704;2023-07-08T07:03:50;101430.78;;;28.83;52.76
250;BME280;109;19.806;-70.704;2023-07-08T07:06:16;101426.78;;;28.74;52.98
250;BME280;109;19.806;-70.704;2023-07-08T07:08:49;101421.13;;;28.79;53.11
250;BME280;109;19.806;-70.704;2023-07-08T07:11:16;101422.94;;;28.78;53.37
250;BME280;109;19.806;-70.704;2023-07-08T07:13:49;101426.03;;;28.72;53.39
250;BME280;109;19.806;-70.704;2023-07-08T07:16:16;101419.00;;;28.70;53.08
250;BME280;109;19.806;-70.704;2023-07-08T07:18:49;101407.75;;;28.77;53.13
250;BME280;109;19.806;-70.704;2023-07-08T07:21:17;101418.13;;;28.69;53.07
250;BME280;109;19.806;-70.704;2023-07-08T07:23:50;101417.84;;;28.74;53.32
250;BME280;109;19.806;-70.704;2023-07-08T07:26:17;101420.53;;;28.74;53.10
250;BME280;109;19.806;-70.704;2023-07-08T07:28:50;101413.13;;;28.77;53.16
250;BME280;109;19.806;-70.704;2023-07-08T07:31:17;101418.22;;;28.68;53.23
250;BME280;109;19.806;-70.704;2023-07-08T07:33:50;101412.31;;;28.61;53.46
250;BME280;109;19.806;-70.704;2023-07-08T07:36:17;101413.69;;;28.68;52.76
250;BME280;109;19.806;-70.704;2023-07-08T07:38:50;101418.22;;;28.68;53.04
250;BME280;109;19.806;-70.704;2023-07-08T07:41:37;101420.31;;;28.63;53.22
250;BME280;109;19.806;-70.704;2023-07-08T07:44:10;101412.69;;;28.55;53.21
250;BME280;109;19.806;-70.704;2023-07-08T07:46:37;101420.31;;;28.63;53.24
250;BME280;109;19.806;-70.704;2023-07-08T07:49:18;101423.88;;;28.63;53.32
250;BME280;109;19.806;-70.704;2023-07-08T07:51:51;101425.69;;;28.63;52.73
250;BME280;109;19.806;-70.704;2023-07-08T07:54:18;101430.22;;;28.62;52.92
250;BME280;109;19.806;-70.704;2023-07-08T07:56:51;101428.47;;;28.61;53.18
250;BME280;109;19.806;-70.704;2023-07-08T07:59:17;101429.25;;;28.63;52.91
250;BME280;109;19.806;-70.704;2023-07-08T08:01:50;101425.44;;;28.67;52.37
250;BME280;109;19.806;-70.704;2023-07-08T08:04:17;101430.59;;;28.56;52.91
250;BME280;109;19.806;-70.704;2023-07-08T08:06:50;101433.47;;;28.53;53.04
250;BME280;109;19.806;-70.704;2023-07-08T08:09:17;101425.78;;;28.47;52.85
250;BME280;109;19.806;-70.704;2023-07-08T08:11:50;101426.09;;;28.41;53.07
250;BME280;109;19.806;-70.704;2023-07-08T08:14:18;101430.84;;;28.36;53.26
250;BME280;109;19.806;-70.704;2023-07-08T08:16:51;101420.22;;;28.34;52.92
250;BME280;109;19.806;-70.704;2023-07-08T08:19:18;101422.78;;;28.36;53.16
250;BME280;109;19.806;-70.704;2023-07-08T08:21:51;101431.63;;;28.38;53.40
250;BME280;109;19.806;-70.704;2023-07-08T08:24:18;101436.34;;;28.50;53.15
250;BME280;109;19.806;-70.704;2023-07-08T08:26:52;101433.38;;;28.54;52.98
250;BME280;109;19.806;-70.704;2023-07-08T08:29:19;101433.84;;;28.47;52.80
250;BME280;109;19.806;-70.704;2023-07-08T08:31:59;101437.41;;;28.47;52.79
250;BME280;109;19.806;-70.704;2023-07-08T08:34:32;101440.31;;;28.43;52.87
250;BME280;109;19.806;-70.704;2023-07-08T08:36:59;101437.03;;;28.38;53.09
250;BME280;109;19.806;-70.704;2023-07-08T08:39:32;101434.34;;;28.38;52.95
250;BME280;109;19.806;-70.704;2023-07-08T08:42:46;101442.06;;;28.44;53.03
250;BME280;109;19.806;-70.704;2023-07-08T08:45:26;101439.88;;;28.35;53.02
250;BME280;109;19.806;-70.704;2023-07-08T08:48:02;101447.44;;;28.44;53.01
250;BME280;109;19.806;-70.704;2023-07-08T08:50:58;101455.63;;;28.42;53.07
250;BME280;109;19.806;-70.704;2023-07-08T08:53:33;101461.09;;;28.41;53.07
250;BME280;109;19.806;-70.704;2023-07-08T08:56:12;101455.09;;;28.36;53.02
250;BME280;109;19.806;-70.704;2023-07-08T09:01:38;101463.94;;;28.38;52.91
250;BME280;109;19.806;-70.704;2023-07-08T09:04:34;101461.25;;;28.38;52.60
250;BME280;109;19.806;-70.704;2023-07-08T09:07:18;101474.56;;;28.25;53.42
250;BME280;109;19.806;-70.704;2023-07-08T09:10:02;101468.50;;;28.21;53.11
250;BME280;109;19.806;-70.704;2023-07-08T09:12:45;101472.47;;;28.30;53.31
250;BME280;109;19.806;-70.704;2023-07-08T09:15:19;101472.81;;;28.40;53.06
250;BME280;109;19.806;-70.704;2023-07-08T09:17:46;101468.91;;;28.30;53.23
250;BME280;109;19.806;-70.704;2023-07-08T09:20:25;101475.66;;;28.37;52.88
250;BME280;109;19.806;-70.704;2023-07-08T09:25:46;101470.56;;;28.32;52.95
250;BME280;109;19.806;-70.704;2023-07-08T09:28:21;101469.34;;;28.38;52.91
250;BME280;109;19.806;-70.704;2023-07-08T09:30:49;101461.25;;;28.38;52.58
250;BME280;109;19.806;-70.704;2023-07-08T09:33:34;101466.56;;;28.39;52.65
250;BME280;109;19.806;-70.704;2023-07-08T09:36:17;101467.34;;;28.41;52.59
250;BME280;109;19.806;-70.704;2023-07-08T09:38:51;101469.78;;;28.30;52.69
250;BME280;109;19.806;-70.704;2023-07-08T09:41:38;101470.03;;;28.41;52.45
250;BME280;109;19.806;-70.704;2023-07-08T09:44:26;101462.22;;;28.37;52.63
250;BME280;109;19.806;-70.704;2023-07-08T09:47:26;101477.50;;;28.36;52.55
250;BME280;109;19.806;-70.704;2023-07-08T09:50:24;101478.44;;;28.35;52.42
250;BME280;109;19.806;-70.704;2023-07-08T09:52:58;101477.59;;;28.35;52.32
250;BME280;109;19.806;-70.704;2023-07-08T09:55:27;101477.88;;;28.30;52.21
250;BME280;109;19.806;-70.704;2023-07-08T09:58:01;101476.47;;;28.39;52.16
250;BME280;109;19.806;-70.704;2023-07-08T10:00:33;101477.84;;;28.46;51.83
250;BME280;109;19.806;-70.704;2023-07-08T10:03:20;101481.66;;;28.42;51.48
250;BME280;109;19.806;-70.704;2023-07-08T10:05:55;101486.63;;;28.49;51.80
250;BME280;109;19.806;-70.704;2023-07-08T10:08:41;101477.16;;;28.42;51.52
250;BME280;109;19.806;-70.704;2023-07-08T10:11:33;101481.50;;;28.45;51.58
250;BME280;109;19.806;-70.704;2023-07-08T10:14:25;101481.69;;;28.57;51.68
250;BME280;109;19.806;-70.704;2023-07-08T10:17:00;101488.88;;;28.57;51.34
250;BME280;109;19.806;-70.704;2023-07-08T10:19:26;101495.94;;;28.59;51.58
250;BME280;109;19.806;-70.704;2023-07-08T10:22:21;101496.03;;;28.58;51.45
250;BME280;109;19.806;-70.704;2023-07-08T10:27:50;101493.31;;;28.58;51.45
250;BME280;109;19.806;-70.704;2023-07-08T10:30:32;101498.00;;;28.54;51.42
250;BME280;109;19.806;-70.704;2023-07-08T11:01:16;101506.75;;;29.04;50.52
250;BME280;109;19.806;-70.704;2023-07-08T11:06:31;101511.09;;;29.06;50.58
250;BME280;109;19.806;-70.704;2023-07-08T11:09:04;101518.38;;;29.20;50.46
250;BME280;109;19.806;-70.704;2023-07-08T11:12:38;101520.13;;;29.35;50.05
250;BME280;109;19.806;-70.704;2023-07-08T11:15:18;101511.78;;;29.54;49.94
250;BME280;109;19.806;-70.704;2023-07-08T11:18:09;101512.47;;;29.57;49.68
250;BME280;109;19.806;-70.704;2023-07-08T11:21:00;101506.00;;;29.74;49.06
250;BME280;109;19.806;-70.704;2023-07-08T11:23:50;101509.47;;;29.90;48.91
250;BME280;109;19.806;-70.704;2023-07-08T11:29:15;101511.75;;;29.82;48.26
250;BME280;109;19.806;-70.704;2023-07-08T11:31:46;101511.88;;;29.95;48.77
250;BME280;109;19.806;-70.704;2023-07-08T11:34:15;101500.19;;;30.09;48.54
250;BME280;109;19.806;-70.704;2023-07-08T11:36:44;101508.25;;;30.23;48.13
250;BME280;109;19.806;-70.704;2023-07-08T11:39:32;101517.97;;;30.40;48.31
250;BME280;109;19.806;-70.704;2023-07-08T11:45:08;101526.53;;;30.46;47.79
250;BME280;109;19.806;-70.704;2023-07-08T11:47:45;101526.44;;;30.33;47.07
250;BME280;109;19.806;-70.704;2023-07-08T11:50:31;101519.50;;;30.29;46.93
250;BME280;109;19.806;-70.704;2023-07-08T11:55:46;101522.91;;;30.60;47.23
250;BME280;109;19.806;-70.704;2023-07-08T12:01:39;101515.41;;;31.04;46.07
250;BME280;109;19.806;-70.704;2023-07-08T12:04:00;101513.03;;;31.13;45.91
250;BME280;109;19.806;-70.704;2023-07-08T12:06:48;101522.56;;;31.31;46.45
250;BME280;109;19.806;-70.704;2023-07-08T12:09:26;101515.66;;;31.39;45.48
250;BME280;109;19.806;-70.704;2023-07-08T12:11:57;101519.78;;;31.45;45.69
250;BME280;109;19.806;-70.704;2023-07-08T12:14:27;101518.81;;;31.46;45.89
250;BME280;109;19.806;-70.704;2023-07-08T12:16:54;101527.03;;;31.57;45.72
250;BME280;109;19.806;-70.704;2023-07-08T12:19:22;101528.63;;;31.47;45.96
250;BME280;109;19.806;-70.704;2023-07-08T12:21:52;101526.78;;;31.60;46.32
250;BME280;109;19.806;-70.704;2023-07-08T12:24:18;101533.50;;;31.80;45.99
250;BME280;109;19.806;-70.704;2023-07-08T12:26:53;101531.97;;;31.76;45.50
250;BME280;109;19.806;-70.704;2023-07-08T12:29:19;101536.31;;;31.79;45.75
250;BME280;109;19.806;-70.704;2023-07-08T12:31:46;101542.47;;;32.06;45.58
250;BME280;109;19.806;-70.704;2023-07-08T12:34:15;101534.19;;;32.20;45.91
250;BME280;109;19.806;-70.704;2023-07-08T12:36:43;101534.88;;;31.98;45.08
250;BME280;109;19.806;-70.704;2023-07-08T12:39:15;101537.22;;;32.28;45.36
250;BME280;109;19.806;-70.704;2023-07-08T12:41:44;101545.28;;;32.04;45.08
250;BME280;109;19.806;-70.704;2023-07-08T12:44:19;101543.00;;;32.11;45.83
250;BME280;109;19.806;-70.704;2023-07-08T12:46:47;101551.69;;;31.65;46.01
250;BME280;109;19.806;-70.704;2023-07-08T12:49:16;101555.03;;;31.82;46.01
250;BME280;109;19.806;-70.704;2023-07-08T12:51:44;101560.88;;;32.01;45.75
250;BME280;109;19.806;-70.704;2023-07-08T12:54:11;101561.56;;;31.92;45.83
250;BME280;109;19.806;-70.704;2023-07-08T12:56:39;101547.38;;;32.25;45.34
250;BME280;109;19.806;-70.704;2023-07-08T12:59:07;101548.50;;;32.22;45.64
250;BME280;109;19.806;-70.704;2023-07-08T13:01:35;101549.22;;;32.24;45.59
250;BME280;109;19.806;-70.704;2023-07-08T13:04:05;101554.72;;;32.48;45.47
250;BME280;109;19.806;-70.704;2023-07-08T13:06:33;101554.25;;;32.30;46.03
250;BME280;109;19.806;-70.704;2023-07-08T13:09:33;101555.28;;;32.28;46.50
250;BME280;109;19.806;-70.704;2023-07-08T13:12:19;101552.25;;;32.45;47.80
250;BME280;109;19.806;-70.704;2023-07-08T13:14:52;101551.47;;;32.67;47.75
250;BME280;109;19.806;-70.704;2023-07-08T13:17:20;101555.69;;;32.47;48.36
250;BME280;109;19.806;-70.704;2023-07-08T13:19:48;101548.06;;;32.28;48.46
250;BME280;109;19.806;-70.704;2023-07-08T13:22:21;101547.38;;;32.37;47.51
250;BME280;109;19.806;-70.704;2023-07-08T13:24:48;101546.00;;;32.56;47.59
250;BME280;109;19.806;-70.704;2023-07-08T13:27:26;101563.59;;;32.50;47.84
250;BME280;109;19.806;-70.704;2023-07-08T13:32:40;101557.88;;;32.66;47.74
250;BME280;109;19.806;-70.704;2023-07-08T13:35:27;101561.44;;;32.66;47.59
250;BME280;109;19.806;-70.704;2023-07-08T13:37:56;101558.75;;;32.66;48.27
250;BME280;109;19.806;-70.704;2023-07-08T13:40:22;101561.34;;;32.68;47.82
250;BME280;109;19.806;-70.704;2023-07-08T13:42:52;101554.69;;;32.85;47.05
250;BME280;109;19.806;-70.704;2023-07-08T13:45:37;101568.25;;;32.85;47.02
250;BME280;109;19.806;-70.704;2023-07-08T13:48:14;101567.59;;;32.81;47.28
250;BME280;109;19.806;-70.704;2023-07-08T13:50:58;101559.72;;;32.89;47.50
250;BME280;109;19.806;-70.704;2023-07-08T13:56:22;101548.84;;;32.78;47.58
250;BME280;109;19.806;-70.704;2023-07-08T13:58:51;101550.63;;;32.90;46.95
250;BME280;109;19.806;-70.704;2023-07-08T14:01:24;101544.78;;;33.07;47.60
250;BME280;109;19.806;-70.704;2023-07-08T14:03:55;101545.50;;;32.98;47.83
250;BME280;109;19.806;-70.704;2023-07-08T14:06:24;101549.22;;;32.73;48.98
250;BME280;109;19.806;-70.704;2023-07-08T14:08:56;101546.41;;;32.38;49.45
250;BME280;109;19.806;-70.704;2023-07-08T14:11:23;101557.31;;;32.50;49.71
250;BME280;109;19.806;-70.704;2023-07-08T14:13:49;101553.22;;;32.44;49.70
250;BME280;109;19.806;-70.704;2023-07-08T14:16:28;101549.34;;;32.35;49.69
250;BME280;109;19.806;-70.704;2023-07-08T14:19:00;101548.81;;;32.30;49.70
250;BME280;109;19.806;-70.704;2023-07-08T14:21:30;101539.84;;;32.54;49.30
250;BME280;109;19.806;-70.704;2023-07-08T14:23:56;101538.53;;;32.59;49.56
250;BME280;109;19.806;-70.704;2023-07-08T14:26:23;101538.69;;;32.45;49.89
250;BME280;109;19.806;-70.704;2023-07-08T14:28:49;101544.50;;;32.52;50.09
250;BME280;109;19.806;-70.704;2023-07-08T14:31:20;101542.22;;;32.58;50.14
250;BME280;109;19.806;-70.704;2023-07-08T14:33:47;101545.19;;;32.42;49.73
250;BME280;109;19.806;-70.704;2023-07-08T14:36:14;101543.81;;;32.24;50.36
250;BME280;109;19.806;-70.704;2023-07-08T14:38:41;101542.31;;;32.33;50.50
250;BME280;109;19.806;-70.704;2023-07-08T14:41:07;101542.22;;;32.58;50.20